Time;durP1;ratioP1;P1;durP2;ratioP2;P2;SDS_P1;SDS_P2;PMS_P1;PMS_P2;Temp;Humidity;BMP_temperature;BMP_pressure;BME280_temperature;BME280_humidity;BME280_pressure;Samples;Min_cycle;Max_cycle;Signal;HPM_P1;HPM_P2
2021/07/07 00:00:59;;;;;;;7.13;5.45;;;22.70;82.80;;;;;;5076663;28;20029;-70
2021/07/07 00:03:28;;;;;;;7.95;4.63;;;22.90;82.60;;;;;;5076993;28;20028;-70
2021/07/07 00:05:54;;;;;;;5.90;3.50;;;23.00;81.60;;;;;;5076596;28;20021;-70
2021/07/07 00:08:20;;;;;;;3.42;3.10;;;23.10;81.80;;;;;;5076763;28;20029;-70
2021/07/07 00:10:45;;;;;;;3.78;3.35;;;23.10;82.40;;;;;;5076513;28;20028;-70
2021/07/07 00:13:12;;;;;;;13.63;5.57;;;23.10;82.60;;;;;;5076577;28;20032;-70
2021/07/07 00:15:38;;;;;;;5.65;3.97;;;23.00;82.10;;;;;;5076801;28;20024;-70
2021/07/07 00:18:08;;;;;;;3.60;3.30;;;22.90;82.50;;;;;;5076832;28;20055;-70
2021/07/07 00:20:38;;;;;;;3.97;3.20;;;22.80;82.70;;;;;;5076813;28;20036;-69
2021/07/07 00:23:04;;;;;;;4.47;3.47;;;22.80;83.40;;;;;;5076515;28;20032;-69
2021/07/07 00:25:30;;;;;;;5.40;3.83;;;22.70;83.30;;;;;;5076510;28;20367;-70
2021/07/07 00:27:56;;;;;;;4.60;3.70;;;22.60;83.20;;;;;;5081968;28;20127;-69
2021/07/07 00:30:22;;;;;;;5.70;3.75;;;22.50;84.20;;;;;;5096628;28;20431;-69
2021/07/07 00:32:47;;;;;;;7.68;3.63;;;22.30;83.80;;;;;;5096592;28;20056;-70
2021/07/07 00:35:13;;;;;;;6.05;3.53;;;22.20;84.20;;;;;;5096752;28;20020;-70
2021/07/07 00:37:39;;;;;;;5.68;3.35;;;22.10;84.40;;;;;;5096878;28;20107;-70
2021/07/07 00:40:06;;;;;;;4.35;3.50;;;22.10;84.80;;;;;;5096848;28;20028;-70
2021/07/07 00:42:32;;;;;;;3.90;3.10;;;22.20;83.70;;;;;;5096472;28;20036;-69
2021/07/07 00:44:58;;;;;;;5.75;3.40;;;22.20;83.80;;;;;;5096928;28;20301;-70
2021/07/07 00:47:23;;;;;;;5.63;3.80;;;22.20;83.70;;;;;;5096415;28;20063;-70
2021/07/07 00:49:49;;;;;;;5.38;3.45;;;22.10;83.90;;;;;;5096731;28;20029;-69
2021/07/07 00:52:18;;;;;;;6.75;3.50;;;22.10;84.10;;;;;;5096361;28;20028;-70
2021/07/07 00:54:45;;;;;;;3.75;2.90;;;22.00;84.40;;;;;;5096410;28;20480;-70
2021/07/07 00:57:11;;;;;;;4.35;3.13;;;21.90;85.30;;;;;;5096253;28;20036;-70
2021/07/07 00:59:37;;;;;;;4.82;3.58;;;21.90;85.70;;;;;;5096632;28;20028;-70
2021/07/07 01:02:04;;;;;;;6.85;3.45;;;22.00;85.10;;;;;;5096290;28;20165;-70
2021/07/07 01:04:30;;;;;;;4.18;3.72;;;22.00;85.20;;;;;;5096265;28;20028;-70
2021/07/07 01:06:56;;;;;;;5.35;3.50;;;21.90;85.60;;;;;;5096435;28;20032;-70
2021/07/07 01:09:22;;;;;;;4.13;2.95;;;22.00;84.30;;;;;;5096521;28;20427;-70
2021/07/07 01:11:47;;;;;;;4.47;3.03;;;22.10;84.10;;;;;;5096544;28;20031;-70
2021/07/07 01:14:13;;;;;;;4.15;3.15;;;22.10;84.40;;;;;;5096612;28;20032;-70
2021/07/07 01:16:43;;;;;;;5.50;3.40;;;22.20;83.30;;;;;;5096457;28;20035;-70
2021/07/07 01:19:10;;;;;;;5.25;2.78;;;22.10;83.40;;;;;;5085456;28;20032;-70
2021/07/07 01:21:36;;;;;;;3.90;2.85;;;22.10;83.10;;;;;;5091599;28;20086;-70
2021/07/07 01:24:02;;;;;;;7.60;3.78;;;22.10;83.50;;;;;;5100026;28;20297;-70
2021/07/07 01:26:27;;;;;;;4.10;3.50;;;22.10;82.80;;;;;;5099411;28;20047;-70
2021/07/07 01:28:53;;;;;;;6.10;4.03;;;22.10;83.10;;;;;;5099591;28;20020;-70
2021/07/07 01:31:19;;;;;;;5.68;4.05;;;22.10;83.00;;;;;;5099606;28;20024;-70
2021/07/07 01:33:46;;;;;;;6.45;3.15;;;22.00;83.50;;;;;;5099532;28;20024;-70
2021/07/07 01:36:12;;;;;;;3.75;3.00;;;22.00;83.90;;;;;;5099434;28;20032;-70
2021/07/07 01:38:37;;;;;;;4.32;2.90;;;22.00;84.30;;;;;;5099456;28;20028;-70
2021/07/07 01:41:03;;;;;;;5.63;4.00;;;22.00;84.40;;;;;;5099396;28;20115;-70
2021/07/07 01:43:29;;;;;;;5.53;4.53;;;22.00;84.60;;;;;;5099682;28;20111;-70
2021/07/07 01:45:55;;;;;;;4.50;4.10;;;21.90;84.70;;;;;;5099513;28;20044;-70
2021/07/07 01:48:20;;;;;;;4.95;4.30;;;21.90;85.00;;;;;;5099288;28;20032;-70
2021/07/07 01:50:46;;;;;;;4.32;3.92;;;21.90;84.90;;;;;;5099203;28;20036;-70
2021/07/07 01:53:12;;;;;;;4.90;3.95;;;21.90;85.10;;;;;;5099153;28;20020;-70
2021/07/07 01:55:38;;;;;;;7.28;3.80;;;21.80;85.20;;;;;;5099121;28;20028;-70
2021/07/07 01:58:04;;;;;;;5.88;3.92;;;21.80;85.60;;;;;;5099088;28;20020;-70
2021/07/07 02:00:32;;;;;;;9.75;4.63;;;21.80;85.80;;;;;;5099067;28;20108;-70
2021/07/07 02:02:59;;;;;;;8.23;5.00;;;21.70;86.10;;;;;;5099279;28;20301;-70
2021/07/07 02:05:43;;;;;;;6.88;4.05;;;21.70;86.40;;;;;;5098844;28;20059;-70
2021/07/07 02:08:10;;;;;;;5.65;4.13;;;21.70;85.90;;;;;;5099212;28;20020;-70
2021/07/07 02:10:37;;;;;;;4.85;3.38;;;21.70;85.80;;;;;;5099190;28;20051;-70
2021/07/07 02:13:05;;;;;;;3.92;3.45;;;21.70;85.30;;;;;;5099054;28;20032;-70
2021/07/07 02:15:33;;;;;;;7.13;3.88;;;21.80;84.70;;;;;;5099010;28;20020;-70
2021/07/07 02:18:00;;;;;;;3.63;3.30;;;21.90;83.30;;;;;;5098980;28;20091;-70
2021/07/07 02:20:27;;;;;;;6.07;3.83;;;22.10;82.30;;;;;;5098659;28;20439;-70
2021/07/07 02:22:53;;;;;;;4.30;2.80;;;22.30;82.00;;;;;;5098897;28;20028;-70
2021/07/07 02:25:21;;;;;;;4.00;3.47;;;22.30;81.80;;;;;;5098543;28;20077;-70
2021/07/07 02:27:48;;;;;;;5.53;3.17;;;22.40;81.00;;;;;;5098383;28;20483;-70
2021/07/07 02:30:17;;;;;;;5.05;3.58;;;22.40;80.10;;;;;;5098772;28;20057;-70
2021/07/07 02:32:43;;;;;;;4.35;3.80;;;22.50;80.50;;;;;;5097964;27;20028;-70
2021/07/07 02:35:12;;;;;;;3.92;3.53;;;22.50;80.30;;;;;;5098323;28;20016;-70
2021/07/07 02:37:39;;;;;;;4.40;3.45;;;22.60;80.60;;;;;;5098325;28;20082;-70
2021/07/07 02:40:06;;;;;;;5.82;3.67;;;22.50;80.80;;;;;;5098592;28;20312;-70
2021/07/07 02:42:33;;;;;;;7.68;3.90;;;22.50;80.80;;;;;;5098176;28;20039;-69
2021/07/07 02:44:59;;;;;;;5.82;3.60;;;22.40;81.00;;;;;;5098600;28;20067;-70
2021/07/07 02:47:25;;;;;;;4.38;3.63;;;22.40;81.20;;;;;;5098073;28;20043;-70
2021/07/07 02:49:51;;;;;;;6.32;3.63;;;22.30;81.20;;;;;;5098388;28;20020;-70
2021/07/07 02:52:17;;;;;;;5.15;2.90;;;22.30;81.20;;;;;;5098020;28;20109;-70
2021/07/07 02:54:42;;;;;;;3.53;3.22;;;22.30;81.70;;;;;;5098325;28;20020;-70
2021/07/07 02:57:08;;;;;;;4.30;3.45;;;22.20;81.90;;;;;;5096875;28;20036;-70
2021/07/07 02:59:34;;;;;;;9.00;3.60;;;22.10;81.90;;;;;;5098176;28;20028;-70
2021/07/07 03:01:59;;;;;;;4.60;3.47;;;22.10;82.80;;;;;;5098164;28;20048;-70
2021/07/07 03:04:25;;;;;;;5.80;3.70;;;22.00;82.40;;;;;;5097896;28;20408;-69
2021/07/07 03:06:51;;;;;;;7.13;3.72;;;21.90;82.60;;;;;;5097960;28;20028;-70
2021/07/07 03:09:16;;;;;;;6.38;3.00;;;21.90;82.90;;;;;;5098022;28;20028;-70
2021/07/07 03:11:42;;;;;;;5.38;3.75;;;21.80;84.00;;;;;;5097649;28;20026;-70
2021/07/07 03:14:08;;;;;;;5.78;3.42;;;21.70;83.50;;;;;;5097881;28;20123;-70
2021/07/07 03:16:33;;;;;;;4.60;4.03;;;21.70;83.70;;;;;;5097988;28;20085;-70
2021/07/07 03:18:59;;;;;;;7.28;4.85;;;21.70;83.50;;;;;;5097869;28;20106;-70
2021/07/07 03:21:25;;;;;;;5.15;4.32;;;21.70;84.00;;;;;;5097509;28;20328;-70
2021/07/07 03:23:50;;;;;;;7.05;4.20;;;21.70;84.10;;;;;;5097717;28;20028;-70
2021/07/07 03:26:16;;;;;;;6.65;4.00;;;21.70;84.50;;;;;;5097070;28;20416;-70
2021/07/07 03:28:42;;;;;;;4.00;3.45;;;21.60;84.60;;;;;;5097370;28;20020;-70
2021/07/07 03:31:08;;;;;;;4.28;3.70;;;21.50;85.10;;;;;;5097623;28;20042;-70
2021/07/07 03:33:33;;;;;;;3.38;3.00;;;21.50;85.40;;;;;;5097609;28;20304;-70
2021/07/07 03:36:00;;;;;;;4.25;2.95;;;21.40;85.50;;;;;;5097566;28;20081;-70
2021/07/07 03:38:26;;;;;;;4.47;3.03;;;21.40;85.90;;;;;;5097517;28;20024;-70
2021/07/07 03:40:52;;;;;;;5.35;3.60;;;21.40;85.90;;;;;;5097184;28;20028;-70
2021/07/07 03:43:18;;;;;;;4.78;3.30;;;21.40;85.60;;;;;;5097050;28;20031;-70
2021/07/07 03:45:44;;;;;;;4.85;3.30;;;21.40;85.20;;;;;;5096964;28;20037;-70
2021/07/07 03:48:10;;;;;;;4.00;3.28;;;21.40;85.60;;;;;;5097415;28;20415;-69
2021/07/07 03:50:36;;;;;;;4.97;3.28;;;21.40;85.50;;;;;;5097374;28;20095;-70
2021/07/07 03:53:06;;;;;;;4.65;2.90;;;21.50;84.90;;;;;;5097291;28;20031;-70
2021/07/07 03:55:33;;;;;;;4.00;3.33;;;21.60;84.50;;;;;;5097290;28;20028;-70
2021/07/07 03:57:59;;;;;;;6.32;4.30;;;21.70;84.30;;;;;;5096924;28;20020;-70
2021/07/07 04:00:26;;;;;;;6.13;5.53;;;21.80;83.20;;;;;;5097252;28;20334;-70
2021/07/07 04:02:53;;;;;;;9.32;5.57;;;22.00;83.20;;;;;;5096870;28;20477;-70
2021/07/07 04:05:19;;;;;;;5.90;4.68;;;22.10;82.60;;;;;;5096832;28;20032;-70
2021/07/07 04:07:46;;;;;;;6.47;3.70;;;22.20;83.20;;;;;;5097079;28;20102;-70
2021/07/07 04:10:13;;;;;;;4.50;4.10;;;22.20;83.10;;;;;;5096807;28;20076;-70
2021/07/07 04:12:41;;;;;;;5.18;4.68;;;22.20;83.50;;;;;;5097062;28;20069;-69
2021/07/07 04:15:07;;;;;;;4.32;3.92;;;22.10;84.40;;;;;;5096700;28;20039;-70
2021/07/07 04:17:34;;;;;;;7.15;3.85;;;22.00;84.70;;;;;;5096773;28;20476;-70
2021/07/07 04:20:00;;;;;;;6.03;3.42;;;22.00;84.70;;;;;;5096698;28;20039;-70
2021/07/07 04:22:26;;;;;;;3.95;2.70;;;21.90;84.80;;;;;;5097000;28;20145;-70
2021/07/07 04:24:52;;;;;;;4.28;3.30;;;21.80;85.60;;;;;;5096680;28;20468;-70
2021/07/07 04:27:17;;;;;;;3.78;2.85;;;21.70;85.90;;;;;;5096449;28;20044;-70
2021/07/07 04:29:43;;;;;;;4.82;3.72;;;21.60;86.40;;;;;;5096880;28;20316;-70
2021/07/07 04:32:09;;;;;;;4.35;3.65;;;21.70;86.20;;;;;;5096823;28;20108;-70
2021/07/07 04:34:34;;;;;;;3.88;3.40;;;21.70;86.20;;;;;;5096921;28;20044;-70
2021/07/07 04:37:01;;;;;;;5.45;3.72;;;21.80;86.30;;;;;;5096510;28;20435;-70
2021/07/07 04:39:27;;;;;;;6.10;3.83;;;21.70;86.90;;;;;;5096860;28;20032;-70
2021/07/07 04:41:52;;;;;;;8.98;3.85;;;21.70;86.90;;;;;;5096825;28;20426;-70
2021/07/07 04:44:18;;;;;;;15.15;3.70;;;21.80;87.50;;;;;;5096862;28;20036;-70
2021/07/07 04:46:44;;;;;;;6.13;3.55;;;21.90;87.30;;;;;;5096653;28;20036;-70
2021/07/07 04:49:09;;;;;;;3.75;3.33;;;22.00;87.30;;;;;;5096726;28;20112;-70
2021/07/07 04:51:35;;;;;;;3.78;3.08;;;22.10;86.70;;;;;;5096763;28;20020;-70
2021/07/07 04:54:01;;;;;;;3.00;2.65;;;22.20;87.10;;;;;;5096725;28;20028;-70
2021/07/07 04:56:27;;;;;;;5.50;3.38;;;22.30;87.00;;;;;;5099561;28;20111;-70
2021/07/07 04:58:53;;;;;;;4.03;3.20;;;22.40;86.50;;;;;;5100517;28;20050;-70
2021/07/07 05:01:18;;;;;;;4.20;3.55;;;22.50;86.40;;;;;;5100578;28;20062;-70
2021/07/07 05:03:44;;;;;;;4.13;3.72;;;22.60;86.50;;;;;;5100434;28;20102;-69
2021/07/07 05:06:10;;;;;;;4.70;3.13;;;22.70;86.10;;;;;;5100316;28;20024;-70
2021/07/07 05:08:35;;;;;;;4.97;3.00;;;22.80;86.80;;;;;;5100353;28;20031;-70
2021/07/07 05:11:02;;;;;;;3.40;2.90;;;22.90;87.50;;;;;;5100310;28;20031;-70
2021/07/07 05:13:28;;;;;;;6.47;3.47;;;22.90;87.70;;;;;;5100074;28;20408;-70
2021/07/07 05:15:54;;;;;;;5.53;2.80;;;23.00;88.20;;;;;;5099905;28;20436;-70
2021/07/07 05:18:20;;;;;;;5.80;3.20;;;23.10;86.10;;;;;;5099921;28;20024;-70
2021/07/07 05:20:46;;;;;;;3.05;2.33;;;23.20;85.20;;;;;;5100146;28;20085;-70
2021/07/07 05:23:12;;;;;;;3.67;2.63;;;23.30;86.00;;;;;;5100061;28;20074;-70
2021/07/07 05:25:39;;;;;;;2.78;2.03;;;23.40;83.00;;;;;;5099454;28;20319;-70
2021/07/07 05:28:06;;;;;;;2.67;1.85;;;23.50;82.80;;;;;;5099690;28;20030;-70
2021/07/07 05:30:32;;;;;;;5.38;2.60;;;23.70;83.40;;;;;;5099933;28;20016;-70
2021/07/07 05:33:01;;;;;;;3.08;2.10;;;23.70;79.60;;;;;;5099863;28;20036;-70
2021/07/07 05:35:27;;;;;;;3.35;2.38;;;23.90;79.90;;;;;;5099852;27;20077;-70
2021/07/07 05:37:54;;;;;;;3.83;2.47;;;24.00;78.70;;;;;;5099541;28;20028;-70
2021/07/07 05:40:20;;;;;;;3.92;2.80;;;24.10;77.30;;;;;;5099487;28;20024;-70
2021/07/07 05:42:52;;;;;;;6.00;3.17;;;24.20;77.40;;;;;;5099625;28;20039;-70
2021/07/07 05:45:20;;;;;;;5.28;3.35;;;24.20;80.10;;;;;;5099647;28;20084;-70
2021/07/07 05:47:46;;;;;;;3.95;3.53;;;24.20;80.90;;;;;;5099261;28;20028;-70
2021/07/07 05:50:12;;;;;;;4.95;3.88;;;24.10;79.80;;;;;;5099231;28;20024;-70
2021/07/07 05:52:37;;;;;;;6.57;4.50;;;24.00;79.00;;;;;;5099559;28;20028;-70
2021/07/07 05:55:04;;;;;;;4.20;3.40;;;23.90;78.80;;;;;;5099751;28;20044;-70
2021/07/07 05:57:39;;;;;;;4.30;3.72;;;23.80;78.90;;;;;;5099155;28;20107;-70
2021/07/07 06:00:09;;;;;;;4.90;3.88;;;23.80;79.90;;;;;;5099108;28;20032;-70
2021/07/07 06:02:35;;;;;;;4.25;3.85;;;23.90;78.80;;;;;;5099354;28;20085;-70
2021/07/07 06:05:01;;;;;;;6.50;4.15;;;24.10;77.90;;;;;;5099239;28;20042;-70
2021/07/07 06:07:27;;;;;;;4.10;3.50;;;24.30;77.40;;;;;;5098399;28;20032;-70
2021/07/07 06:09:53;;;;;;;4.28;3.42;;;24.50;76.50;;;;;;5099214;28;20020;-70
2021/07/07 06:12:18;;;;;;;4.25;3.70;;;24.70;77.20;;;;;;5098798;28;20055;-70
2021/07/07 06:14:44;;;;;;;4.63;3.17;;;24.70;75.30;;;;;;5099324;28;20043;-70
2021/07/07 06:17:09;;;;;;;5.50;3.45;;;24.80;75.00;;;;;;5098957;28;20362;-70
2021/07/07 06:19:35;;;;;;;4.40;3.10;;;25.00;73.70;;;;;;5099025;28;20473;-70
2021/07/07 06:22:01;;;;;;;4.95;3.13;;;25.30;73.80;;;;;;5098943;28;20055;-70
2021/07/07 06:24:29;;;;;;;2.67;2.45;;;25.80;73.90;;;;;;5098577;28;20024;-70
2021/07/07 06:26:55;;;;;;;4.43;2.05;;;26.20;73.90;;;;;;5098237;28;20090;-70
2021/07/07 06:29:21;;;;;;;2.92;2.65;;;26.60;74.20;;;;;;5098797;28;20043;-70
2021/07/07 06:31:47;;;;;;;4.70;2.95;;;27.10;71.80;;;;;;5098761;28;20362;-70
2021/07/07 06:34:12;;;;;;;5.45;2.20;;;27.70;70.60;;;;;;5098413;28;20024;-70
2021/07/07 06:36:39;;;;;;;7.13;2.65;;;28.40;69.10;;;;;;5098641;28;20036;-70
2021/07/07 06:39:05;;;;;;;4.00;2.17;;;28.90;67.70;;;;;;5098634;28;20024;-70
2021/07/07 06:41:34;;;;;;;3.38;2.00;;;29.60;67.30;;;;;;5098161;28;20491;-70
2021/07/07 06:44:00;;;;;;;3.10;2.30;;;30.20;65.20;;;;;;5098580;28;20032;-70
2021/07/07 06:46:26;;;;;;;5.40;2.38;;;30.60;63.40;;;;;;5098110;28;20043;-70
2021/07/07 06:48:52;;;;;;;3.05;2.15;;;30.80;62.60;;;;;;5098114;28;20016;-70
2021/07/07 06:51:18;;;;;;;4.38;2.55;;;30.80;62.90;;;;;;5098049;28;20028;-70
2021/07/07 06:53:43;;;;;;;4.10;2.28;;;31.00;60.80;;;;;;5098018;28;20020;-70
2021/07/07 06:56:09;;;;;;;2.85;2.20;;;31.10;61.20;;;;;;5097957;28;20066;-70
2021/07/07 06:58:35;;;;;;;7.50;3.83;;;31.20;61.10;;;;;;5097934;28;20024;-71
2021/07/07 07:01:00;;;;;;;3.15;2.80;;;31.30;59.60;;;;;;5098202;28;20031;-71
2021/07/07 07:03:26;;;;;;;3.15;2.78;;;31.20;60.30;;;;;;5098168;28;20081;-71
2021/07/07 07:05:52;;;;;;;5.05;2.50;;;31.00;60.90;;;;;;5097993;28;20321;-70
2021/07/07 07:08:18;;;;;;;3.00;2.35;;;30.80;62.60;;;;;;5098075;28;20061;-70
2021/07/07 07:10:45;;;;;;;6.30;2.88;;;30.80;62.50;;;;;;5098023;28;20024;-71
2021/07/07 07:13:14;;;;;;;3.92;3.22;;;30.80;62.30;;;;;;5097942;28;20032;-71
2021/07/07 07:15:41;;;;;;;8.63;3.10;;;31.00;61.80;;;;;;5097600;28;20430;-71
2021/07/07 07:18:07;;;;;;;5.15;3.10;;;31.20;61.00;;;;;;5097561;28;20430;-71
2021/07/07 07:20:33;;;;;;;3.58;3.10;;;31.40;60.50;;;;;;5097550;28;20075;-71
2021/07/07 07:23:00;;;;;;;3.03;2.60;;;31.60;59.80;;;;;;5097802;28;20091;-71
2021/07/07 07:25:26;;;;;;;5.47;3.15;;;31.80;60.50;;;;;;5097757;28;20023;-71
2021/07/07 07:27:53;;;;;;;7.95;3.90;;;32.10;59.80;;;;;;5097093;28;20051;-71
2021/07/07 07:30:19;;;;;;;6.63;3.65;;;32.30;59.60;;;;;;5097423;28;20108;-71
2021/07/07 07:32:47;;;;;;;3.60;3.30;;;32.50;58.50;;;;;;5097335;28;20024;-71
2021/07/07 07:35:14;;;;;;;6.05;3.45;;;32.60;58.10;;;;;;5097582;28;20024;-71
2021/07/07 07:37:51;;;;;;;4.80;3.78;;;32.50;57.50;;;;;;5097604;28;20031;-71
2021/07/07 07:40:26;;;;;;;4.75;3.55;;;32.30;58.80;;;;;;5097580;28;20028;-71
2021/07/07 07:42:53;;;;;;;3.03;2.70;;;31.90;60.80;;;;;;5097174;28;20042;-71
2021/07/07 07:45:20;;;;;;;4.13;2.97;;;32.10;60.20;;;;;;5097434;28;20059;-71
2021/07/07 07:47:47;;;;;;;3.03;2.67;;;32.50;59.40;;;;;;5097312;28;20101;-71
2021/07/07 07:50:14;;;;;;;3.88;2.53;;;32.60;59.80;;;;;;5097345;28;20024;-71
2021/07/07 07:52:41;;;;;;;3.95;3.10;;;32.70;60.80;;;;;;5096050;28;20024;-71
2021/07/07 07:55:08;;;;;;;6.30;3.60;;;32.70;60.10;;;;;;5097265;28;20021;-71
2021/07/07 07:57:38;;;;;;;5.30;3.88;;;32.30;59.10;;;;;;5096963;28;20049;-71
2021/07/07 08:00:19;;;;;;;4.03;3.33;;;32.40;59.00;;;;;;5097206;28;20024;-71
2021/07/07 08:02:46;;;;;;;3.58;3.20;;;32.40;59.60;;;;;;5097250;28;20027;-71
2021/07/07 08:05:13;;;;;;;5.07;3.20;;;32.30;57.60;;;;;;5097173;28;20321;-71
2021/07/07 08:07:40;;;;;;;3.92;3.35;;;32.60;57.60;;;;;;5097097;28;20032;-71
2021/07/07 08:10:08;;;;;;;4.28;3.35;;;32.90;58.10;;;;;;5096809;28;20103;-71
2021/07/07 08:12:34;;;;;;;3.88;3.30;;;33.10;57.40;;;;;;5096785;28;20460;-71
2021/07/07 08:14:59;;;;;;;3.30;3.00;;;33.40;57.40;;;;;;5096648;28;20107;-71
2021/07/07 08:17:25;;;;;;;3.92;2.85;;;33.10;56.90;;;;;;5097070;28;20111;-71
2021/07/07 08:19:51;;;;;;;5.47;2.90;;;33.20;57.10;;;;;;5097032;28;20374;-71
2021/07/07 08:22:17;;;;;;;4.47;3.33;;;33.50;57.30;;;;;;5096696;28;20031;-71
2021/07/07 08:24:44;;;;;;;3.10;2.67;;;33.60;57.10;;;;;;5096734;28;20463;-71
2021/07/07 08:27:10;;;;;;;7.18;3.30;;;33.70;56.80;;;;;;5096511;28;20044;-71
2021/07/07 08:29:37;;;;;;;3.85;3.40;;;34.00;57.50;;;;;;5096608;28;20059;-71
2021/07/07 08:32:07;;;;;;;7.30;3.10;;;34.00;57.90;;;;;;5100990;28;20027;-71
2021/07/07 08:34:33;;;;;;;3.40;3.10;;;34.00;58.30;;;;;;5101077;28;20028;-71
2021/07/07 08:36:59;;;;;;;4.28;3.22;;;33.90;57.30;;;;;;5100934;28;20024;-71
2021/07/07 08:39:26;;;;;;;4.93;2.92;;;33.90;57.20;;;;;;5100967;28;20103;-71
2021/07/07 08:41:51;;;;;;;6.55;3.20;;;34.00;57.60;;;;;;5100892;28;20405;-71
2021/07/07 08:44:17;;;;;;;3.83;2.42;;;34.10;58.20;;;;;;5100840;28;20059;-71
2021/07/07 08:46:43;;;;;;;3.30;2.88;;;34.40;58.70;;;;;;5100389;28;20036;-71
2021/07/07 08:49:09;;;;;;;3.13;2.10;;;34.30;57.10;;;;;;5100767;28;20035;-71
2021/07/07 08:51:40;;;;;;;3.08;2.40;;;34.30;58.80;;;;;;5100422;28;20079;-71
2021/07/07 08:54:07;;;;;;;3.92;2.95;;;34.50;60.50;;;;;;5100407;28;20073;-71
2021/07/07 08:56:32;;;;;;;4.70;3.60;;;34.60;57.60;;;;;;5100586;28;20035;-71
2021/07/07 08:58:58;;;;;;;4.13;3.47;;;34.60;56.50;;;;;;5100283;28;20036;-71
2021/07/07 09:01:24;;;;;;;5.18;3.80;;;35.10;54.60;;;;;;5100553;28;20035;-71
2021/07/07 09:03:49;;;;;;;4.20;2.72;;;35.00;54.90;;;;;;5100184;28;20331;-71
2021/07/07 09:06:19;;;;;;;3.80;3.40;;;34.70;57.60;;;;;;5100356;28;20020;-71
2021/07/07 09:08:47;;;;;;;6.32;3.17;;;34.80;57.80;;;;;;5100063;28;20047;-71
2021/07/07 09:11:27;;;;;;;6.70;4.20;;;34.70;59.50;;;;;;5100373;28;20028;-71
2021/07/07 09:14:08;;;;;;;5.40;3.67;;;34.50;57.70;;;;;;5100178;28;20432;-71
2021/07/07 09:17:02;;;;;;;10.77;5.07;;;34.40;57.20;;;;;;5100236;28;20089;-71
2021/07/07 09:19:32;;;;;;;5.00;4.33;;;34.40;57.00;;;;;;5099948;28;20036;-72
2021/07/07 09:22:05;;;;;;;7.45;4.28;;;34.30;58.30;;;;;;5100143;28;20032;-71
2021/07/07 09:24:32;;;;;;;7.65;4.75;;;34.20;57.40;;;;;;5100145;28;20023;-72
2021/07/07 09:27:04;;;;;;;6.45;4.97;;;34.20;59.20;;;;;;5099448;28;20054;-72
2021/07/07 09:29:42;;;;;;;7.18;5.88;;;34.20;57.10;;;;;;5099991;28;20031;-71
2021/07/07 09:32:30;;;;;;;6.82;4.53;;;34.30;57.70;;;;;;5099710;28;20448;-72
2021/07/07 09:34:59;;;;;;;6.00;5.10;;;34.20;59.10;;;;;;5099655;28;20408;-72
2021/07/07 09:37:35;;;;;;;4.40;4.00;;;34.40;57.10;;;;;;5099898;28;20107;-71
2021/07/07 09:40:00;;;;;;;9.88;3.17;;;34.70;59.30;;;;;;5099514;28;20028;-72
2021/07/07 09:42:34;;;;;;;7.97;5.55;;;35.10;59.30;;;;;;5098197;28;20115;-72
2021/07/07 09:45:01;;;;;;;4.35;3.83;;;35.30;55.10;;;;;;5099291;28;20378;-72
2021/07/07 09:47:27;;;;;;;6.65;4.13;;;35.20;56.40;;;;;;5099322;28;20040;-71
2021/07/07 09:49:54;;;;;;;6.43;3.90;;;35.20;53.20;;;;;;5099307;28;20412;-71
2021/07/07 09:52:23;;;;;;;5.72;3.78;;;35.40;53.20;;;;;;5099598;28;20020;-71
2021/07/07 09:54:49;;;;;;;5.55;4.13;;;35.30;56.20;;;;;;5099550;28;20016;-72
2021/07/07 09:57:16;;;;;;;5.78;3.13;;;35.20;55.00;;;;;;5099415;28;20035;-71
2021/07/07 09:59:42;;;;;;;6.45;2.38;;;34.90;54.90;;;;;;5099420;28;20028;-71
2021/07/07 10:02:08;;;;;;;2.22;1.92;;;34.80;55.20;;;;;;5099377;28;20039;-71
2021/07/07 10:04:39;;;;;;;3.15;2.28;;;34.80;54.70;;;;;;5099391;28;20028;-71
2021/07/07 10:07:07;;;;;;;3.45;1.95;;;35.20;54.00;;;;;;5099209;28;20301;-71
2021/07/07 10:09:35;;;;;;;4.38;2.90;;;35.30;56.00;;;;;;5099213;28;20039;-71
2021/07/07 10:12:02;;;;;;;2.60;1.98;;;35.20;53.10;;;;;;5099205;28;20312;-71
2021/07/07 10:14:28;;;;;;;2.42;1.75;;;35.20;55.00;;;;;;5099275;28;20032;-71
2021/07/07 10:16:55;;;;;;;3.17;2.05;;;35.40;56.70;;;;;;5098150;28;20039;-71
2021/07/07 10:19:21;;;;;;;3.13;2.78;;;35.60;57.20;;;;;;5086469;28;20028;-71
2021/07/07 10:21:47;;;;;;;3.17;2.60;;;35.40;55.90;;;;;;5093313;28;20042;-71
2021/07/07 10:24:16;;;;;;;2.95;2.65;;;35.20;57.60;;;;;;5098868;28;20028;-71
2021/07/07 10:26:43;;;;;;;4.70;3.20;;;35.20;55.00;;;;;;5098511;28;20048;-70
2021/07/07 10:29:10;;;;;;;6.47;2.78;;;34.90;54.60;;;;;;5098797;28;20069;-71
2021/07/07 10:31:51;;;;;;;5.03;2.42;;;34.60;55.10;;;;;;5098830;28;20043;-71
2021/07/07 10:34:19;;;;;;;2.90;1.70;;;34.40;55.20;;;;;;5098436;28;20031;-71
2021/07/07 10:36:45;;;;;;;3.45;2.47;;;34.50;57.50;;;;;;5098398;28;20075;-71
2021/07/07 10:39:12;;;;;;;4.40;2.00;;;34.60;57.00;;;;;;5098622;28;20020;-70
2021/07/07 10:41:41;;;;;;;3.38;2.65;;;34.50;57.40;;;;;;5098292;28;20039;-71
2021/07/07 10:44:07;;;;;;;3.25;2.17;;;34.60;54.80;;;;;;5098631;28;20028;-71
2021/07/07 10:46:54;;;;;;;2.50;1.60;;;34.60;55.80;;;;;;5098108;28;20082;-71
2021/07/07 10:49:27;;;;;;;2.42;1.85;;;34.70;58.30;;;;;;5098465;28;20099;-71
2021/07/07 10:51:55;;;;;;;4.63;2.88;;;34.60;60.10;;;;;;5098385;28;20316;-71
2021/07/07 10:54:27;;;;;;;6.15;2.22;;;34.70;53.60;;;;;;5097757;28;20463;-71
2021/07/07 10:56:54;;;;;;;5.00;3.03;;;34.30;54.70;;;;;;5097969;28;20448;-70
2021/07/07 10:59:46;;;;;;;3.33;2.22;;;34.30;53.30;;;;;;5098233;28;20024;-71
2021/07/07 11:02:15;;;;;;;2.78;1.95;;;34.30;58.70;;;;;;5095151;28;20111;-71
2021/07/07 11:04:43;;;;;;;3.10;1.65;;;34.40;56.60;;;;;;5098186;28;20051;-72
2021/07/07 11:07:35;;;;;;;3.38;2.22;;;34.60;59.90;;;;;;5097982;28;20032;-71
2021/07/07 11:10:01;;;;;;;7.72;2.17;;;34.90;53.50;;;;;;5098061;28;20183;-71
2021/07/07 11:12:35;;;;;;;3.53;2.13;;;34.90;57.40;;;;;;5097728;28;20440;-71
2021/07/07 11:15:18;;;;;;;4.82;2.90;;;34.70;56.80;;;;;;5097526;28;20035;-70
2021/07/07 11:17:49;;;;;;;4.50;2.58;;;34.60;55.50;;;;;;5097999;28;20024;-71
2021/07/07 11:20:16;;;;;;;3.22;1.75;;;34.30;54.30;;;;;;5097635;28;20481;-71
2021/07/07 11:22:57;;;;;;;4.40;2.20;;;34.30;57.80;;;;;;5097862;28;20028;-71
2021/07/07 11:25:25;;;;;;;3.25;1.90;;;34.30;54.70;;;;;;5097770;28;20032;-71
2021/07/07 11:27:51;;;;;;;5.13;1.90;;;34.20;58.70;;;;;;5097245;28;20081;-71
2021/07/07 11:30:18;;;;;;;5.35;1.80;;;34.20;59.30;;;;;;5097431;28;20343;-71
2021/07/07 11:32:47;;;;;;;3.70;2.33;;;34.10;60.10;;;;;;5097674;28;20028;-71
2021/07/07 11:35:15;;;;;;;4.00;2.00;;;34.00;57.70;;;;;;5097330;28;20020;-71
2021/07/07 11:37:42;;;;;;;5.80;2.00;;;34.00;58.40;;;;;;5097252;28;20024;-71
2021/07/07 11:40:08;;;;;;;3.53;2.25;;;33.60;57.90;;;;;;5097244;28;20028;-71
2021/07/07 11:42:35;;;;;;;3.63;1.70;;;33.60;57.00;;;;;;5097498;28;20038;-71
2021/07/07 11:45:00;;;;;;;2.17;1.88;;;33.60;60.70;;;;;;5097616;28;20032;-71
2021/07/07 11:47:30;;;;;;;5.05;2.70;;;33.50;59.00;;;;;;5097101;28;20093;-71
2021/07/07 11:50:09;;;;;;;2.65;1.80;;;33.30;57.20;;;;;;5097385;28;20028;-71
2021/07/07 11:53:00;;;;;;;6.10;2.53;;;33.10;61.20;;;;;;5097392;28;20099;-71
2021/07/07 11:55:44;;;;;;;3.15;2.20;;;33.10;58.90;;;;;;5097041;28;20040;-71
2021/07/07 11:58:11;;;;;;;3.83;2.50;;;33.00;60.90;;;;;;5097291;28;20024;-71
2021/07/07 12:00:38;;;;;;;5.57;2.45;;;32.90;56.70;;;;;;5096940;28;20070;-71
2021/07/07 12:03:04;;;;;;;6.45;2.20;;;32.70;56.10;;;;;;5097218;28;20044;-71
2021/07/07 12:05:30;;;;;;;2.88;1.80;;;32.60;58.90;;;;;;5096205;28;20048;-71
2021/07/07 12:08:21;;;;;;;3.58;2.53;;;32.50;63.80;;;;;;5097120;28;20047;-71
2021/07/07 12:10:49;;;;;;;6.40;1.90;;;32.30;60.70;;;;;;5097123;28;20020;-71
2021/07/07 12:13:28;;;;;;;2.05;1.75;;;32.10;59.60;;;;;;5096834;28;20454;-71
2021/07/07 12:16:14;;;;;;;3.35;1.67;;;32.00;60.30;;;;;;5097066;28;20046;-71
2021/07/07 12:18:41;;;;;;;2.70;1.92;;;31.90;64.60;;;;;;5096797;28;20025;-71
2021/07/07 12:21:07;;;;;;;5.57;2.92;;;31.70;62.00;;;;;;5097022;28;20024;-71
2021/07/07 12:23:46;;;;;;;4.65;2.45;;;31.50;60.20;;;;;;5096710;28;20315;-71
2021/07/07 12:26:13;;;;;;;4.07;2.30;;;31.40;58.20;;;;;;5096634;28;20033;-71
2021/07/07 12:28:39;;;;;;;3.28;2.45;;;31.40;63.40;;;;;;5096998;28;20028;-71
2021/07/07 12:31:05;;;;;;;2.35;1.77;;;31.30;60.40;;;;;;5096962;28;20027;-71
2021/07/07 12:33:31;;;;;;;9.93;2.45;;;31.30;67.60;;;;;;5096587;28;20472;-71
2021/07/07 12:35:58;;;;;;;2.60;1.90;;;31.30;61.90;;;;;;5096579;28;20198;-71
2021/07/07 12:38:24;;;;;;;2.85;2.42;;;31.00;63.10;;;;;;5096849;28;20404;-71
2021/07/07 12:40:56;;;;;;;2.60;1.70;;;31.00;60.10;;;;;;5096883;28;20081;-71
2021/07/07 12:43:42;;;;;;;3.15;2.08;;;31.00;62.60;;;;;;5096566;28;20140;-71
2021/07/07 12:46:09;;;;;;;5.03;1.83;;;31.10;64.90;;;;;;5096702;28;20370;-71
2021/07/07 12:48:52;;;;;;;3.50;2.17;;;31.20;63.50;;;;;;5096480;28;20111;-71